sensor_id;sensor_type;location;lat;lon;timestamp;P1;durP1;ratioP1;P2;durP2;ratioP2
19788;SDS011;10054;59.332;18.244;2023-04-25T00:00:35;2.23;;;2.03;;
19788;SDS011;10054;59.332;18.244;2023-04-25T00:03:04;3.17;;;2.17;;
19788;SDS011;10054;59.332;18.244;2023-04-25T00:05:33;2.30;;;2.10;;
19788;SDS011;10054;59.332;18.244;2023-04-25T00:08:03;3.63;;;2.43;;
19788;SDS011;10054;59.332;18.244;2023-04-25T00:10:33;2.37;;;2.17;;
19788;SDS011;10054;59.332;18.244;2023-04-25T00:13:01;2.70;;;2.20;;
19788;SDS011;10054;59.332;18.244;2023-04-25T00:15:31;2.33;;;2.13;;
19788;SDS011;10054;59.332;18.244;2023-04-25T00:18:00;2.93;;;2.17;;
19788;SDS011;10054;59.332;18.244;2023-04-25T00:20:29;2.33;;;2.13;;
19788;SDS011;10054;59.332;18.244;2023-04-25T00:22:58;2.87;;;2.10;;
19788;SDS011;10054;59.332;18.244;2023-04-25T00:25:27;2.30;;;2.10;;
19788;SDS011;10054;59.332;18.244;2023-04-25T00:27:56;3.43;;;2.10;;
19788;SDS011;10054;59.332;18.244;2023-04-25T00:30:25;2.30;;;2.10;;
19788;SDS011;10054;59.332;18.244;2023-04-25T00:32:54;2.60;;;2.30;;
19788;SDS011;10054;59.332;18.244;2023-04-25T00:35:23;3.60;;;2.57;;
19788;SDS011;10054;59.332;18.244;2023-04-25T00:37:53;2.90;;;1.90;;
19788;SDS011;10054;59.332;18.244;2023-04-25T00:40:22;2.33;;;2.07;;
19788;SDS011;10054;59.332;18.244;2023-04-25T00:42:52;2.13;;;1.93;;
19788;SDS011;10054;59.332;18.244;2023-04-25T00:45:21;4.13;;;1.90;;
19788;SDS011;10054;59.332;18.244;2023-04-25T00:47:52;1.83;;;1.73;;
19788;SDS011;10054;59.332;18.244;2023-04-25T00:50:22;2.07;;;1.80;;
19788;SDS011;10054;59.332;18.244;2023-04-25T00:52:52;1.60;;;1.50;;
19788;SDS011;10054;59.332;18.244;2023-04-25T00:55:21;1.50;;;1.40;;
19788;SDS011;10054;59.332;18.244;2023-04-25T00:57:51;1.90;;;1.43;;
19788;SDS011;10054;59.332;18.244;2023-04-25T01:00:20;2.10;;;1.50;;
19788;SDS011;10054;59.332;18.244;2023-04-25T01:02:50;2.27;;;1.20;;
19788;SDS011;10054;59.332;18.244;2023-04-25T01:05:20;1.73;;;1.50;;
19788;SDS011;10054;59.332;18.244;2023-04-25T01:07:49;1.30;;;1.20;;
19788;SDS011;10054;59.332;18.244;2023-04-25T01:10:18;1.73;;;1.37;;
19788;SDS011;10054;59.332;18.244;2023-04-25T01:12:47;1.80;;;1.50;;
19788;SDS011;10054;59.332;18.244;2023-04-25T01:15:16;1.37;;;1.30;;
19788;SDS011;10054;59.332;18.244;2023-04-25T01:17:45;1.50;;;1.40;;
19788;SDS011;10054;59.332;18.244;2023-04-25T01:20:16;1.30;;;1.20;;
19788;SDS011;10054;59.332;18.244;2023-04-25T01:22:46;1.50;;;1.40;;
19788;SDS011;10054;59.332;18.244;2023-04-25T01:25:15;1.30;;;1.30;;
19788;SDS011;10054;59.332;18.244;2023-04-25T01:27:45;2.00;;;1.30;;
19788;SDS011;10054;59.332;18.244;2023-04-25T01:30:15;1.40;;;1.30;;
19788;SDS011;10054;59.332;18.244;2023-04-25T01:32:44;2.90;;;1.37;;
19788;SDS011;10054;59.332;18.244;2023-04-25T01:35:14;1.40;;;1.30;;
19788;SDS011;10054;59.332;18.244;2023-04-25T01:37:43;1.97;;;1.47;;
19788;SDS011;10054;59.332;18.244;2023-04-25T01:40:12;2.10;;;1.50;;
19788;SDS011;10054;59.332;18.244;2023-04-25T01:42:42;1.27;;;1.10;;
19788;SDS011;10054;59.332;18.244;2023-04-25T01:45:12;2.90;;;1.40;;
19788;SDS011;10054;59.332;18.244;2023-04-25T01:47:42;2.47;;;1.53;;
19788;SDS011;10054;59.332;18.244;2023-04-25T01:50:13;1.30;;;1.20;;
19788;SDS011;10054;59.332;18.244;2023-04-25T01:52:42;1.83;;;1.20;;
19788;SDS011;10054;59.332;18.244;2023-04-25T01:55:12;1.57;;;1.10;;
19788;SDS011;10054;59.332;18.244;2023-04-25T01:57:43;1.03;;;1.00;;
19788;SDS011;10054;59.332;18.244;2023-04-25T02:00:12;1.20;;;1.10;;
19788;SDS011;10054;59.332;18.244;2023-04-25T02:02:40;1.43;;;1.17;;
19788;SDS011;10054;59.332;18.244;2023-04-25T02:05:22;1.17;;;1.03;;
19788;SDS011;10054;59.332;18.244;2023-04-25T02:07:52;1.07;;;1.00;;
19788;SDS011;10054;59.332;18.244;2023-04-25T02:10:23;1.10;;;1.00;;
19788;SDS011;10054;59.332;18.244;2023-04-25T02:12:56;2.07;;;1.30;;
19788;SDS011;10054;59.332;18.244;2023-04-25T02:15:27;3.20;;;1.27;;
19788;SDS011;10054;59.332;18.244;2023-04-25T02:17:58;1.40;;;1.30;;
19788;SDS011;10054;59.332;18.244;2023-04-25T02:20:30;1.60;;;1.33;;
19788;SDS011;10054;59.332;18.244;2023-04-25T02:22:59;1.47;;;1.27;;
19788;SDS011;10054;59.332;18.244;2023-04-25T02:25:29;1.40;;;1.30;;
19788;SDS011;10054;59.332;18.244;2023-04-25T02:27:58;1.60;;;1.50;;
19788;SDS011;10054;59.332;18.244;2023-04-25T02:30:29;1.13;;;1.13;;
19788;SDS011;10054;59.332;18.244;2023-04-25T02:32:58;1.77;;;1.17;;
19788;SDS011;10054;59.332;18.244;2023-04-25T02:35:28;2.20;;;1.47;;
19788;SDS011;10054;59.332;18.244;2023-04-25T02:37:57;1.43;;;1.33;;
19788;SDS011;10054;59.332;18.244;2023-04-25T02:40:27;1.50;;;1.40;;
19788;SDS011;10054;59.332;18.244;2023-04-25T02:42:56;1.30;;;1.13;;
19788;SDS011;10054;59.332;18.244;2023-04-25T02:45:26;1.53;;;1.40;;
19788;SDS011;10054;59.332;18.244;2023-04-25T02:47:55;1.40;;;1.30;;
19788;SDS011;10054;59.332;18.244;2023-04-25T02:50:24;1.47;;;1.33;;
19788;SDS011;10054;59.332;18.244;2023-04-25T02:52:53;1.20;;;1.20;;
19788;SDS011;10054;59.332;18.244;2023-04-25T02:55:24;1.13;;;1.10;;
19788;SDS011;10054;59.332;18.244;2023-04-25T02:57:53;1.63;;;1.20;;
19788;SDS011;10054;59.332;18.244;2023-04-25T03:00:27;1.13;;;1.13;;
19788;SDS011;10054;59.332;18.244;2023-04-25T03:02:56;1.27;;;1.17;;
19788;SDS011;10054;59.332;18.244;2023-04-25T03:05:25;1.30;;;1.07;;
19788;SDS011;10054;59.332;18.244;2023-04-25T03:07:54;1.30;;;1.20;;
19788;SDS011;10054;59.332;18.244;2023-04-25T03:10:23;0.93;;;0.93;;
19788;SDS011;10054;59.332;18.244;2023-04-25T03:12:53;2.30;;;1.30;;
19788;SDS011;10054;59.332;18.244;2023-04-25T03:15:21;2.00;;;1.17;;
19788;SDS011;10054;59.332;18.244;2023-04-25T03:17:52;1.00;;;1.00;;
19788;SDS011;10054;59.332;18.244;2023-04-25T03:20:22;1.17;;;1.17;;
19788;SDS011;10054;59.332;18.244;2023-04-25T03:22:51;1.10;;;1.10;;
19788;SDS011;10054;59.332;18.244;2023-04-25T03:25:20;1.10;;;1.10;;
19788;SDS011;10054;59.332;18.244;2023-04-25T03:27:49;1.27;;;1.17;;
19788;SDS011;10054;59.332;18.244;2023-04-25T03:30:18;1.20;;;1.10;;
19788;SDS011;10054;59.332;18.244;2023-04-25T03:32:49;1.40;;;1.30;;
19788;SDS011;10054;59.332;18.244;2023-04-25T03:35:18;1.33;;;1.23;;
19788;SDS011;10054;59.332;18.244;2023-04-25T03:37:47;2.50;;;1.27;;
19788;SDS011;10054;59.332;18.244;2023-04-25T03:40:17;1.27;;;1.20;;
19788;SDS011;10054;59.332;18.244;2023-04-25T03:42:52;2.10;;;1.40;;
19788;SDS011;10054;59.332;18.244;2023-04-25T03:45:20;1.50;;;1.40;;
19788;SDS011;10054;59.332;18.244;2023-04-25T03:47:49;1.47;;;1.37;;
19788;SDS011;10054;59.332;18.244;2023-04-25T03:50:18;1.40;;;1.20;;
19788;SDS011;10054;59.332;18.244;2023-04-25T03:52:47;2.83;;;1.33;;
19788;SDS011;10054;59.332;18.244;2023-04-25T03:55:16;1.50;;;1.40;;
19788;SDS011;10054;59.332;18.244;2023-04-25T03:57:46;1.50;;;1.40;;
19788;SDS011;10054;59.332;18.244;2023-04-25T04:00:16;1.50;;;1.40;;
19788;SDS011;10054;59.332;18.244;2023-04-25T04:02:44;1.20;;;1.20;;
19788;SDS011;10054;59.332;18.244;2023-04-25T04:05:13;1.30;;;1.30;;
19788;SDS011;10054;59.332;18.244;2023-04-25T04:07:43;1.37;;;1.27;;
19788;SDS011;10054;59.332;18.244;2023-04-25T04:10:13;1.50;;;1.37;;
19788;SDS011;10054;59.332;18.244;2023-04-25T04:12:42;1.40;;;1.33;;
19788;SDS011;10054;59.332;18.244;2023-04-25T04:15:11;1.40;;;1.30;;
19788;SDS011;10054;59.332;18.244;2023-04-25T04:17:40;1.93;;;1.50;;
19788;SDS011;10054;59.332;18.244;2023-04-25T04:20:09;1.73;;;1.63;;
19788;SDS011;10054;59.332;18.244;2023-04-25T04:22:39;2.83;;;1.40;;
19788;SDS011;10054;59.332;18.244;2023-04-25T04:25:10;3.73;;;1.63;;
19788;SDS011;10054;59.332;18.244;2023-04-25T04:27:43;1.90;;;1.80;;
19788;SDS011;10054;59.332;18.244;2023-04-25T04:30:23;2.03;;;1.83;;
19788;SDS011;10054;59.332;18.244;2023-04-25T04:32:56;1.90;;;1.70;;
19788;SDS011;10054;59.332;18.244;2023-04-25T04:35:25;2.13;;;1.67;;
19788;SDS011;10054;59.332;18.244;2023-04-25T04:37:54;1.80;;;1.70;;
19788;SDS011;10054;59.332;18.244;2023-04-25T04:40:24;3.63;;;2.10;;
19788;SDS011;10054;59.332;18.244;2023-04-25T04:42:57;3.07;;;2.20;;
19788;SDS011;10054;59.332;18.244;2023-04-25T04:45:40;2.43;;;2.23;;
19788;SDS011;10054;59.332;18.244;2023-04-25T04:48:25;5.80;;;2.53;;
19788;SDS011;10054;59.332;18.244;2023-04-25T04:50:59;5.03;;;2.27;;
19788;SDS011;10054;59.332;18.244;2023-04-25T04:53:32;2.57;;;2.37;;
19788;SDS011;10054;59.332;18.244;2023-04-25T04:56:20;2.60;;;2.40;;
19788;SDS011;10054;59.332;18.244;2023-04-25T04:58:51;3.67;;;2.60;;
19788;SDS011;10054;59.332;18.244;2023-04-25T05:01:38;3.60;;;2.50;;
19788;SDS011;10054;59.332;18.244;2023-04-25T05:04:11;3.00;;;2.27;;
19788;SDS011;10054;59.332;18.244;2023-04-25T05:06:44;3.77;;;2.80;;
19788;SDS011;10054;59.332;18.244;2023-04-25T05:09:33;4.87;;;2.70;;
19788;SDS011;10054;59.332;18.244;2023-04-25T05:12:19;7.50;;;3.03;;
19788;SDS011;10054;59.332;18.244;2023-04-25T05:14:55;8.07;;;2.97;;
19788;SDS011;10054;59.332;18.244;2023-04-25T05:17:26;4.43;;;2.47;;
19788;SDS011;10054;59.332;18.244;2023-04-25T05:20:14;5.60;;;3.33;;
19788;SDS011;10054;59.332;18.244;2023-04-25T05:23:05;3.00;;;2.50;;
19788;SDS011;10054;59.332;18.244;2023-04-25T05:25:38;5.00;;;2.70;;
19788;SDS011;10054;59.332;18.244;2023-04-25T05:28:08;9.83;;;2.33;;
19788;SDS011;10054;59.332;18.244;2023-04-25T05:30:41;2.53;;;2.20;;
19788;SDS011;10054;59.332;18.244;2023-04-25T05:33:11;3.93;;;2.33;;
19788;SDS011;10054;59.332;18.244;2023-04-25T05:35:41;2.47;;;2.27;;
19788;SDS011;10054;59.332;18.244;2023-04-25T05:38:10;2.30;;;2.10;;
19788;SDS011;10054;59.332;18.244;2023-04-25T05:40:57;3.17;;;2.40;;
19788;SDS011;10054;59.332;18.244;2023-04-25T05:43:45;2.67;;;2.47;;
19788;SDS011;10054;59.332;18.244;2023-04-25T05:46:17;3.10;;;2.43;;
19788;SDS011;10054;59.332;18.244;2023-04-25T05:48:50;4.37;;;2.43;;
19788;SDS011;10054;59.332;18.244;2023-04-25T05:51:21;4.83;;;2.80;;
19788;SDS011;10054;59.332;18.244;2023-04-25T05:53:51;2.47;;;2.27;;
19788;SDS011;10054;59.332;18.244;2023-04-25T05:56:21;4.10;;;2.33;;
19788;SDS011;10054;59.332;18.244;2023-04-25T05:58:51;2.30;;;2.10;;
19788;SDS011;10054;59.332;18.244;2023-04-25T06:01:21;4.03;;;2.40;;
19788;SDS011;10054;59.332;18.244;2023-04-25T06:03:50;6.03;;;2.50;;
19788;SDS011;10054;59.332;18.244;2023-04-25T06:06:19;4.87;;;2.20;;
19788;SDS011;10054;59.332;18.244;2023-04-25T06:08:47;4.57;;;2.20;;
19788;SDS011;10054;59.332;18.244;2023-04-25T06:11:17;2.40;;;2.20;;
19788;SDS011;10054;59.332;18.244;2023-04-25T06:13:45;3.53;;;1.90;;
19788;SDS011;10054;59.332;18.244;2023-04-25T06:16:15;4.20;;;1.93;;
19788;SDS011;10054;59.332;18.244;2023-04-25T06:18:44;3.87;;;1.80;;
19788;SDS011;10054;59.332;18.244;2023-04-25T06:21:13;5.00;;;1.90;;
19788;SDS011;10054;59.332;18.244;2023-04-25T06:23:42;3.87;;;2.30;;
19788;SDS011;10054;59.332;18.244;2023-04-25T06:26:12;3.57;;;2.17;;
19788;SDS011;10054;59.332;18.244;2023-04-25T06:28:42;6.83;;;2.50;;
19788;SDS011;10054;59.332;18.244;2023-04-25T06:31:11;3.33;;;2.10;;
19788;SDS011;10054;59.332;18.244;2023-04-25T06:33:40;3.20;;;2.17;;
19788;SDS011;10054;59.332;18.244;2023-04-25T06:36:09;4.23;;;2.20;;
19788;SDS011;10054;59.332;18.244;2023-04-25T06:38:39;4.37;;;2.50;;
19788;SDS011;10054;59.332;18.244;2023-04-25T06:41:07;5.50;;;2.17;;
19788;SDS011;10054;59.332;18.244;2023-04-25T06:43:36;2.40;;;2.03;;
19788;SDS011;10054;59.332;18.244;2023-04-25T06:46:12;2.10;;;1.90;;
19788;SDS011;10054;59.332;18.244;2023-04-25T06:48:43;2.40;;;2.20;;
19788;SDS011;10054;59.332;18.244;2023-04-25T06:51:12;2.43;;;1.90;;
19788;SDS011;10054;59.332;18.244;2023-04-25T06:53:41;2.40;;;2.20;;
19788;SDS011;10054;59.332;18.244;2023-04-25T06:56:12;2.37;;;2.17;;
19788;SDS011;10054;59.332;18.244;2023-04-25T06:58:42;3.90;;;2.37;;
19788;SDS011;10054;59.332;18.244;2023-04-25T07:01:15;5.10;;;2.10;;
19788;SDS011;10054;59.332;18.244;2023-04-25T07:03:44;2.60;;;2.20;;
19788;SDS011;10054;59.332;18.244;2023-04-25T07:06:14;2.53;;;2.33;;
19788;SDS011;10054;59.332;18.244;2023-04-25T07:08:44;6.60;;;2.60;;
19788;SDS011;10054;59.332;18.244;2023-04-25T07:11:13;3.73;;;2.93;;
19788;SDS011;10054;59.332;18.244;2023-04-25T07:13:42;3.27;;;2.80;;
19788;SDS011;10054;59.332;18.244;2023-04-25T07:16:29;3.57;;;2.60;;
19788;SDS011;10054;59.332;18.244;2023-04-25T07:18:59;3.07;;;2.60;;
19788;SDS011;10054;59.332;18.244;2023-04-25T07:21:28;4.73;;;2.83;;
19788;SDS011;10054;59.332;18.244;2023-04-25T07:23:59;10.17;;;2.83;;
19788;SDS011;10054;59.332;18.244;2023-04-25T07:26:30;2.70;;;2.50;;
19788;SDS011;10054;59.332;18.244;2023-04-25T07:29:06;3.93;;;2.50;;
19788;SDS011;10054;59.332;18.244;2023-04-25T07:31:34;4.57;;;2.70;;
19788;SDS011;10054;59.332;18.244;2023-04-25T07:34:04;3.67;;;2.80;;
19788;SDS011;10054;59.332;18.244;2023-04-25T07:36:33;4.63;;;2.60;;
19788;SDS011;10054;59.332;18.244;2023-04-25T07:39:02;3.23;;;2.73;;
19788;SDS011;10054;59.332;18.244;2023-04-25T07:41:31;3.70;;;2.67;;
19788;SDS011;10054;59.332;18.244;2023-04-25T07:44:01;3.73;;;3.10;;
19788;SDS011;10054;59.332;18.244;2023-04-25T07:46:30;3.53;;;2.77;;
19788;SDS011;10054;59.332;18.244;2023-04-25T07:48:59;3.50;;;2.73;;
19788;SDS011;10054;59.332;18.244;2023-04-25T07:51:28;3.50;;;2.83;;
19788;SDS011;10054;59.332;18.244;2023-04-25T07:53:59;3.47;;;3.17;;
19788;SDS011;10054;59.332;18.244;2023-04-25T07:56:28;4.30;;;3.27;;
19788;SDS011;10054;59.332;18.244;2023-04-25T07:58:57;3.43;;;2.97;;
19788;SDS011;10054;59.332;18.244;2023-04-25T08:01:27;4.13;;;2.97;;
19788;SDS011;10054;59.332;18.244;2023-04-25T08:03:57;10.27;;;3.10;;
19788;SDS011;10054;59.332;18.244;2023-04-25T08:06:27;4.83;;;3.30;;
19788;SDS011;10054;59.332;18.244;2023-04-25T08:08:59;2.97;;;2.77;;
19788;SDS011;10054;59.332;18.244;2023-04-25T08:11:29;4.53;;;3.20;;
19788;SDS011;10054;59.332;18.244;2023-04-25T08:13:58;3.70;;;3.40;;
19788;SDS011;10054;59.332;18.244;2023-04-25T08:16:27;4.03;;;3.47;;
19788;SDS011;10054;59.332;18.244;2023-04-25T08:18:57;3.93;;;3.40;;
19788;SDS011;10054;59.332;18.244;2023-04-25T08:21:27;3.73;;;3.20;;
19788;SDS011;10054;59.332;18.244;2023-04-25T08:23:56;4.17;;;3.13;;
19788;SDS011;10054;59.332;18.244;2023-04-25T08:26:27;3.43;;;3.13;;
19788;SDS011;10054;59.332;18.244;2023-04-25T08:28:57;3.67;;;3.27;;
19788;SDS011;10054;59.332;18.244;2023-04-25T08:31:26;4.70;;;3.67;;
19788;SDS011;10054;59.332;18.244;2023-04-25T08:33:56;4.30;;;3.17;;
19788;SDS011;10054;59.332;18.244;2023-04-25T08:36:26;2.73;;;2.53;;
19788;SDS011;10054;59.332;18.244;2023-04-25T08:38:55;4.17;;;3.40;;
19788;SDS011;10054;59.332;18.244;2023-04-25T08:41:23;4.17;;;3.07;;
19788;SDS011;10054;59.332;18.244;2023-04-25T08:43:53;5.30;;;3.30;;
19788;SDS011;10054;59.332;18.244;2023-04-25T08:46:23;4.63;;;3.50;;
19788;SDS011;10054;59.332;18.244;2023-04-25T08:48:59;6.30;;;3.57;;
19788;SDS011;10054;59.332;18.244;2023-04-25T08:51:30;6.33;;;4.00;;
19788;SDS011;10054;59.332;18.244;2023-04-25T08:54:07;3.73;;;3.43;;
19788;SDS011;10054;59.332;18.244;2023-04-25T08:56:35;4.13;;;3.73;;
19788;SDS011;10054;59.332;18.244;2023-04-25T08:59:05;6.10;;;4.17;;
19788;SDS011;10054;59.332;18.244;2023-04-25T09:01:35;8.97;;;4.57;;
19788;SDS011;10054;59.332;18.244;2023-04-25T09:04:04;7.13;;;4.40;;
19788;SDS011;10054;59.332;18.244;2023-04-25T09:06:33;5.13;;;4.13;;
19788;SDS011;10054;59.332;18.244;2023-04-25T09:09:03;7.30;;;4.43;;
19788;SDS011;10054;59.332;18.244;2023-04-25T09:11:34;14.37;;;4.47;;
19788;SDS011;10054;59.332;18.244;2023-04-25T09:14:11;13.70;;;4.47;;
19788;SDS011;10054;59.332;18.244;2023-04-25T09:17:02;8.77;;;4.60;;
19788;SDS011;10054;59.332;18.244;2023-04-25T09:19:35;8.17;;;4.67;;
19788;SDS011;10054;59.332;18.244;2023-04-25T09:22:08;7.43;;;5.17;;
19788;SDS011;10054;59.332;18.244;2023-04-25T09:24:41;5.97;;;5.37;;
19788;SDS011;10054;59.332;18.244;2023-04-25T09:27:12;4.87;;;4.33;;
19788;SDS011;10054;59.332;18.244;2023-04-25T09:29:43;23.83;;;6.03;;
19788;SDS011;10054;59.332;18.244;2023-04-25T09:34:53;7.83;;;5.80;;
19788;SDS011;10054;59.332;18.244;2023-04-25T09:37:27;8.93;;;5.60;;
19788;SDS011;10054;59.332;18.244;2023-04-25T09:40:04;6.27;;;5.17;;
19788;SDS011;10054;59.332;18.244;2023-04-25T09:42:35;10.50;;;5.83;;
19788;SDS011;10054;59.332;18.244;2023-04-25T09:45:06;6.23;;;5.30;;
19788;SDS011;10054;59.332;18.244;2023-04-25T09:47:37;8.70;;;5.90;;
19788;SDS011;10054;59.332;18.244;2023-04-25T09:50:13;7.57;;;5.97;;
19788;SDS011;10054;59.332;18.244;2023-04-25T09:52:44;6.70;;;6.00;;
19788;SDS011;10054;59.332;18.244;2023-04-25T09:55:19;8.00;;;6.50;;
19788;SDS011;10054;59.332;18.244;2023-04-25T09:57:48;8.83;;;6.43;;
19788;SDS011;10054;59.332;18.244;2023-04-25T10:00:20;7.10;;;6.40;;
19788;SDS011;10054;59.332;18.244;2023-04-25T10:02:49;9.40;;;6.20;;
19788;SDS011;10054;59.332;18.244;2023-04-25T10:05:27;8.03;;;6.30;;
19788;SDS011;10054;59.332;18.244;2023-04-25T10:07:59;7.60;;;6.37;;
19788;SDS011;10054;59.332;18.244;2023-04-25T10:10:32;8.07;;;6.40;;
19788;SDS011;10054;59.332;18.244;2023-04-25T10:13:08;8.17;;;7.10;;
19788;SDS011;10054;59.332;18.244;2023-04-25T10:15:34;10.10;;;7.10;;
19788;SDS011;10054;59.332;18.244;2023-04-25T10:18:06;8.67;;;6.90;;
19788;SDS011;10054;59.332;18.244;2023-04-25T10:20:36;9.80;;;7.10;;
19788;SDS011;10054;59.332;18.244;2023-04-25T10:23:11;8.97;;;7.43;;
19788;SDS011;10054;59.332;18.244;2023-04-25T10:25:41;9.27;;;7.23;;
19788;SDS011;10054;59.332;18.244;2023-04-25T10:28:11;7.63;;;6.00;;
19788;SDS011;10054;59.332;18.244;2023-04-25T10:30:56;9.20;;;7.33;;
19788;SDS011;10054;59.332;18.244;2023-04-25T10:33:16;7.83;;;7.00;;
19788;SDS011;10054;59.332;18.244;2023-04-25T10:35:45;9.00;;;7.50;;
19788;SDS011;10054;59.332;18.244;2023-04-25T10:38:14;9.77;;;7.93;;
19788;SDS011;10054;59.332;18.244;2023-04-25T10:41:02;9.97;;;6.97;;
19788;SDS011;10054;59.332;18.244;2023-04-25T10:43:38;9.17;;;7.20;;
19788;SDS011;10054;59.332;18.244;2023-04-25T10:46:24;8.30;;;6.87;;
19788;SDS011;10054;59.332;18.244;2023-04-25T10:48:55;10.43;;;6.77;;
19788;SDS011;10054;59.332;18.244;2023-04-25T10:51:27;6.30;;;5.70;;
19788;SDS011;10054;59.332;18.244;2023-04-25T10:54:01;4.87;;;3.93;;
19788;SDS011;10054;59.332;18.244;2023-04-25T10:56:32;4.07;;;3.67;;
19788;SDS011;10054;59.332;18.244;2023-04-25T11:01:41;4.00;;;3.70;;
19788;SDS011;10054;59.332;18.244;2023-04-25T11:04:20;3.63;;;3.33;;
19788;SDS011;10054;59.332;18.244;2023-04-25T11:07:07;3.53;;;3.30;;
19788;SDS011;10054;59.332;18.244;2023-04-25T11:09:54;5.30;;;4.80;;
19788;SDS011;10054;59.332;18.244;2023-04-25T11:12:24;6.70;;;5.90;;
19788;SDS011;10054;59.332;18.244;2023-04-25T11:14:58;4.33;;;3.93;;
19788;SDS011;10054;59.332;18.244;2023-04-25T11:17:27;5.13;;;4.63;;
19788;SDS011;10054;59.332;18.244;2023-04-25T11:19:56;5.70;;;5.07;;
19788;SDS011;10054;59.332;18.244;2023-04-25T11:22:26;5.67;;;4.23;;
19788;SDS011;10054;59.332;18.244;2023-04-25T11:24:56;4.27;;;3.87;;
19788;SDS011;10054;59.332;18.244;2023-04-25T11:27:25;4.63;;;4.23;;
19788;SDS011;10054;59.332;18.244;2023-04-25T11:29:54;3.67;;;3.37;;
19788;SDS011;10054;59.332;18.244;2023-04-25T11:32:23;3.80;;;3.50;;
19788;SDS011;10054;59.332;18.244;2023-04-25T11:34:52;3.90;;;3.60;;
19788;SDS011;10054;59.332;18.244;2023-04-25T11:37:21;3.93;;;3.23;;
19788;SDS011;10054;59.332;18.244;2023-04-25T11:39:49;3.60;;;3.30;;
19788;SDS011;10054;59.332;18.244;2023-04-25T11:42:19;3.77;;;3.27;;
19788;SDS011;10054;59.332;18.244;2023-04-25T11:44:47;3.50;;;3.20;;
19788;SDS011;10054;59.332;18.244;2023-04-25T11:47:16;3.20;;;2.90;;
19788;SDS011;10054;59.332;18.244;2023-04-25T11:49:45;4.17;;;3.27;;
19788;SDS011;10054;59.332;18.244;2023-04-25T11:52:14;4.00;;;3.47;;
19788;SDS011;10054;59.332;18.244;2023-04-25T11:54:43;3.63;;;3.33;;
19788;SDS011;10054;59.332;18.244;2023-04-25T11:57:13;3.60;;;3.30;;
19788;SDS011;10054;59.332;18.244;2023-04-25T11:59:42;3.57;;;3.27;;
19788;SDS011;10054;59.332;18.244;2023-04-25T12:02:23;3.50;;;3.30;;
19788;SDS011;10054;59.332;18.244;2023-04-25T12:04:54;3.60;;;3.30;;
19788;SDS011;10054;59.332;18.244;2023-04-25T12:07:31;3.37;;;3.07;;
19788;SDS011;10054;59.332;18.244;2023-04-25T12:10:03;3.50;;;3.07;;
19788;SDS011;10054;59.332;18.244;2023-04-25T12:12:44;3.27;;;2.97;;
19788;SDS011;10054;59.332;18.244;2023-04-25T12:15:18;3.60;;;3.30;;
19788;SDS011;10054;59.332;18.244;2023-04-25T12:17:49;3.60;;;3.30;;
19788;SDS011;10054;59.332;18.244;2023-04-25T12:22:51;5.50;;;5.00;;
19788;SDS011;10054;59.332;18.244;2023-04-25T12:28:14;7.57;;;6.87;;
19788;SDS011;10054;59.332;18.244;2023-04-25T12:33:33;7.77;;;6.97;;
19788;SDS011;10054;59.332;18.244;2023-04-25T12:36:06;6.33;;;5.73;;
19788;SDS011;10054;59.332;18.244;2023-04-25T12:38:38;7.97;;;7.13;;
19788;SDS011;10054;59.332;18.244;2023-04-25T12:41:08;6.57;;;5.97;;
19788;SDS011;10054;59.332;18.244;2023-04-25T12:43:37;5.67;;;5.17;;
19788;SDS011;10054;59.332;18.244;2023-04-25T12:46:06;4.93;;;4.53;;
19788;SDS011;10054;59.332;18.244;2023-04-25T12:48:35;4.67;;;4.27;;
19788;SDS011;10054;59.332;18.244;2023-04-25T12:51:05;5.00;;;4.60;;
19788;SDS011;10054;59.332;18.244;2023-04-25T12:53:34;5.67;;;4.83;;
19788;SDS011;10054;59.332;18.244;2023-04-25T12:56:04;5.00;;;4.60;;
19788;SDS011;10054;59.332;18.244;2023-04-25T12:58:33;5.20;;;4.80;;
19788;SDS011;10054;59.332;18.244;2023-04-25T13:01:02;5.23;;;4.70;;
19788;SDS011;10054;59.332;18.244;2023-04-25T13:03:31;5.30;;;4.80;;
19788;SDS011;10054;59.332;18.244;2023-04-25T13:06:01;5.03;;;4.63;;
19788;SDS011;10054;59.332;18.244;2023-04-25T13:08:30;5.07;;;4.50;;
19788;SDS011;10054;59.332;18.244;2023-04-25T13:10:59;4.73;;;4.33;;
19788;SDS011;10054;59.332;18.244;2023-04-25T13:13:28;4.73;;;4.33;;
19788;SDS011;10054;59.332;18.244;2023-04-25T13:15:58;4.90;;;4.40;;
19788;SDS011;10054;59.332;18.244;2023-04-25T13:18:26;4.40;;;4.10;;
19788;SDS011;10054;59.332;18.244;2023-04-25T13:20:56;4.40;;;4.10;;
19788;SDS011;10054;59.332;18.244;2023-04-25T13:23:28;5.80;;;3.93;;
19788;SDS011;10054;59.332;18.244;2023-04-25T13:25:57;4.00;;;3.57;;
19788;SDS011;10054;59.332;18.244;2023-04-25T13:28:28;3.97;;;3.67;;
19788;SDS011;10054;59.332;18.244;2023-04-25T13:30:56;4.77;;;4.30;;
19788;SDS011;10054;59.332;18.244;2023-04-25T13:33:28;4.30;;;3.90;;
19788;SDS011;10054;59.332;18.244;2023-04-25T13:35:57;4.17;;;3.80;;
19788;SDS011;10054;59.332;18.244;2023-04-25T13:38:26;4.20;;;3.83;;
19788;SDS011;10054;59.332;18.244;2023-04-25T13:40:55;3.93;;;3.63;;
19788;SDS011;10054;59.332;18.244;2023-04-25T13:43:24;5.80;;;3.70;;
19788;SDS011;10054;59.332;18.244;2023-04-25T13:45:53;4.60;;;4.20;;
19788;SDS011;10054;59.332;18.244;2023-04-25T13:48:22;5.63;;;4.87;;
19788;SDS011;10054;59.332;18.244;2023-04-25T13:50:51;4.87;;;4.47;;
19788;SDS011;10054;59.332;18.244;2023-04-25T13:53:20;5.10;;;4.37;;
19788;SDS011;10054;59.332;18.244;2023-04-25T13:55:49;4.60;;;4.20;;
19788;SDS011;10054;59.332;18.244;2023-04-25T13:58:18;3.67;;;3.37;;
19788;SDS011;10054;59.332;18.244;2023-04-25T14:00:47;4.23;;;3.70;;
19788;SDS011;10054;59.332;18.244;2023-04-25T14:03:16;5.67;;;3.40;;
19788;SDS011;10054;59.332;18.244;2023-04-25T14:05:45;4.90;;;3.90;;
19788;SDS011;10054;59.332;18.244;2023-04-25T14:08:14;4.50;;;3.97;;
19788;SDS011;10054;59.332;18.244;2023-04-25T14:10:43;4.43;;;3.83;;
19788;SDS011;10054;59.332;18.244;2023-04-25T14:13:12;3.93;;;3.63;;
19788;SDS011;10054;59.332;18.244;2023-04-25T14:15:41;4.60;;;4.30;;
19788;SDS011;10054;59.332;18.244;2023-04-25T14:18:13;4.70;;;4.23;;
19788;SDS011;10054;59.332;18.244;2023-04-25T14:20:42;4.30;;;3.90;;
19788;SDS011;10054;59.332;18.244;2023-04-25T14:23:11;4.60;;;4.20;;
19788;SDS011;10054;59.332;18.244;2023-04-25T14:25:40;4.83;;;3.50;;
19788;SDS011;10054;59.332;18.244;2023-04-25T14:28:09;4.00;;;3.60;;
19788;SDS011;10054;59.332;18.244;2023-04-25T14:30:40;3.80;;;3.50;;
19788;SDS011;10054;59.332;18.244;2023-04-25T14:33:10;7.90;;;3.80;;
19788;SDS011;10054;59.332;18.244;2023-04-25T14:35:40;5.47;;;3.17;;
19788;SDS011;10054;59.332;18.244;2023-04-25T14:38:09;5.30;;;3.60;;
19788;SDS011;10054;59.332;18.244;2023-04-25T14:40:39;4.07;;;3.50;;
19788;SDS011;10054;59.332;18.244;2023-04-25T14:43:09;4.00;;;3.10;;
19788;SDS011;10054;59.332;18.244;2023-04-25T14:45:37;3.60;;;3.30;;
19788;SDS011;10054;59.332;18.244;2023-04-25T14:48:06;3.63;;;3.30;;
19788;SDS011;10054;59.332;18.244;2023-04-25T14:50:38;3.30;;;3.00;;
19788;SDS011;10054;59.332;18.244;2023-04-25T14:53:07;3.43;;;3.13;;
19788;SDS011;10054;59.332;18.244;2023-04-25T14:55:36;3.70;;;3.40;;
19788;SDS011;10054;59.332;18.244;2023-04-25T14:58:05;4.13;;;3.73;;
19788;SDS011;10054;59.332;18.244;2023-04-25T15:00:34;4.37;;;3.30;;
19788;SDS011;10054;59.332;18.244;2023-04-25T15:03:03;4.13;;;3.73;;
19788;SDS011;10054;59.332;18.244;2023-04-25T15:05:34;4.50;;;2.90;;
19788;SDS011;10054;59.332;18.244;2023-04-25T15:08:02;4.67;;;3.30;;